sensor_id;sensor_type;location;lat;lon;timestamp;P1;durP1;ratioP1;P2;durP2;ratioP2
20090;SDS011;10205;49.678;6.560;2023-04-24T00:02:02;0.90;;;0.60;;
20090;SDS011;10205;49.678;6.560;2023-04-24T00:04:31;0.60;;;0.60;;
20090;SDS011;10205;49.678;6.560;2023-04-24T00:06:58;0.85;;;0.50;;
20090;SDS011;10205;49.678;6.560;2023-04-24T00:09:27;0.68;;;0.68;;
20090;SDS011;10205;49.678;6.560;2023-04-24T00:11:54;2.03;;;0.55;;
20090;SDS011;10205;49.678;6.560;2023-04-24T00:14:21;1.00;;;0.70;;
20090;SDS011;10205;49.678;6.560;2023-04-24T00:16:48;0.57;;;0.57;;
20090;SDS011;10205;49.678;6.560;2023-04-24T00:19:16;0.60;;;0.55;;
20090;SDS011;10205;49.678;6.560;2023-04-24T00:21:46;0.70;;;0.70;;
20090;SDS011;10205;49.678;6.560;2023-04-24T00:24:15;0.60;;;0.60;;
20090;SDS011;10205;49.678;6.560;2023-04-24T00:26:43;0.45;;;0.45;;
20090;SDS011;10205;49.678;6.560;2023-04-24T00:29:10;0.63;;;0.63;;
20090;SDS011;10205;49.678;6.560;2023-04-24T00:31:38;1.08;;;0.70;;
20090;SDS011;10205;49.678;6.560;2023-04-24T00:34:05;0.50;;;0.50;;
20090;SDS011;10205;49.678;6.560;2023-04-24T00:36:32;0.50;;;0.50;;
20090;SDS011;10205;49.678;6.560;2023-04-24T00:39:00;0.57;;;0.57;;
20090;SDS011;10205;49.678;6.560;2023-04-24T00:41:27;0.60;;;0.60;;
20090;SDS011;10205;49.678;6.560;2023-04-24T00:43:56;0.70;;;0.70;;
20090;SDS011;10205;49.678;6.560;2023-04-24T00:46:23;1.10;;;0.70;;
20090;SDS011;10205;49.678;6.560;2023-04-24T00:48:50;0.52;;;0.52;;
20090;SDS011;10205;49.678;6.560;2023-04-24T00:51:18;0.70;;;0.70;;
20090;SDS011;10205;49.678;6.560;2023-04-24T00:53:46;0.70;;;0.70;;
20090;SDS011;10205;49.678;6.560;2023-04-24T00:56:14;0.82;;;0.82;;
20090;SDS011;10205;49.678;6.560;2023-04-24T00:58:42;1.05;;;0.80;;
20090;SDS011;10205;49.678;6.560;2023-04-24T01:01:11;0.82;;;0.80;;
20090;SDS011;10205;49.678;6.560;2023-04-24T01:03:39;0.85;;;0.63;;
20090;SDS011;10205;49.678;6.560;2023-04-24T01:06:07;0.68;;;0.68;;
20090;SDS011;10205;49.678;6.560;2023-04-24T01:08:36;1.05;;;0.63;;
20090;SDS011;10205;49.678;6.560;2023-04-24T01:11:05;1.27;;;0.90;;
20090;SDS011;10205;49.678;6.560;2023-04-24T01:13:33;1.60;;;0.93;;
20090;SDS011;10205;49.678;6.560;2023-04-24T01:16:01;1.10;;;0.90;;
20090;SDS011;10205;49.678;6.560;2023-04-24T01:18:30;0.98;;;0.90;;
20090;SDS011;10205;49.678;6.560;2023-04-24T01:21:04;1.10;;;1.00;;
20090;SDS011;10205;49.678;6.560;2023-04-24T01:23:34;1.20;;;1.10;;
20090;SDS011;10205;49.678;6.560;2023-04-24T01:26:01;1.08;;;1.08;;
20090;SDS011;10205;49.678;6.560;2023-04-24T01:28:28;3.08;;;1.13;;
20090;SDS011;10205;49.678;6.560;2023-04-24T01:30:56;1.95;;;1.23;;
20090;SDS011;10205;49.678;6.560;2023-04-24T01:33:25;1.83;;;1.40;;
20090;SDS011;10205;49.678;6.560;2023-04-24T01:35:53;1.30;;;1.20;;
20090;SDS011;10205;49.678;6.560;2023-04-24T01:38:20;1.40;;;1.30;;
20090;SDS011;10205;49.678;6.560;2023-04-24T01:40:49;1.58;;;1.20;;
20090;SDS011;10205;49.678;6.560;2023-04-24T01:43:17;1.38;;;1.25;;
20090;SDS011;10205;49.678;6.560;2023-04-24T01:45:45;1.25;;;1.15;;
20090;SDS011;10205;49.678;6.560;2023-04-24T01:48:12;1.63;;;1.40;;
20090;SDS011;10205;49.678;6.560;2023-04-24T01:50:40;1.33;;;1.23;;
20090;SDS011;10205;49.678;6.560;2023-04-24T01:53:07;1.52;;;1.42;;
20090;SDS011;10205;49.678;6.560;2023-04-24T01:55:34;3.50;;;1.27;;
20090;SDS011;10205;49.678;6.560;2023-04-24T01:58:03;2.55;;;1.98;;
20090;SDS011;10205;49.678;6.560;2023-04-24T02:00:30;2.03;;;1.90;;
20090;SDS011;10205;49.678;6.560;2023-04-24T02:02:58;2.03;;;1.73;;
20090;SDS011;10205;49.678;6.560;2023-04-24T02:05:26;1.63;;;1.52;;
20090;SDS011;10205;49.678;6.560;2023-04-24T02:07:54;3.10;;;1.58;;
20090;SDS011;10205;49.678;6.560;2023-04-24T02:10:21;1.90;;;1.65;;
20090;SDS011;10205;49.678;6.560;2023-04-24T02:12:50;2.00;;;1.80;;
20090;SDS011;10205;49.678;6.560;2023-04-24T02:15:18;3.63;;;1.90;;
20090;SDS011;10205;49.678;6.560;2023-04-24T02:17:46;1.85;;;1.60;;
20090;SDS011;10205;49.678;6.560;2023-04-24T02:20:13;2.70;;;1.70;;
20090;SDS011;10205;49.678;6.560;2023-04-24T02:22:40;2.72;;;1.67;;
20090;SDS011;10205;49.678;6.560;2023-04-24T02:25:07;2.05;;;1.85;;
20090;SDS011;10205;49.678;6.560;2023-04-24T02:27:35;2.65;;;1.70;;
20090;SDS011;10205;49.678;6.560;2023-04-24T02:30:02;1.67;;;1.58;;
20090;SDS011;10205;49.678;6.560;2023-04-24T02:32:31;1.77;;;1.67;;
20090;SDS011;10205;49.678;6.560;2023-04-24T02:34:59;4.03;;;1.75;;
20090;SDS011;10205;49.678;6.560;2023-04-24T02:37:26;1.30;;;1.20;;
20090;SDS011;10205;49.678;6.560;2023-04-24T02:39:53;3.60;;;1.98;;
20090;SDS011;10205;49.678;6.560;2023-04-24T02:42:20;2.33;;;2.08;;
20090;SDS011;10205;49.678;6.560;2023-04-24T02:44:47;1.92;;;1.75;;
20090;SDS011;10205;49.678;6.560;2023-04-24T02:47:16;2.08;;;1.83;;
20090;SDS011;10205;49.678;6.560;2023-04-24T02:49:44;2.08;;;1.88;;
20090;SDS011;10205;49.678;6.560;2023-04-24T02:52:12;2.45;;;2.22;;
20090;SDS011;10205;49.678;6.560;2023-04-24T02:54:39;2.08;;;1.88;;
20090;SDS011;10205;49.678;6.560;2023-04-24T02:57:06;1.88;;;1.77;;
20090;SDS011;10205;49.678;6.560;2023-04-24T02:59:33;1.92;;;1.65;;
20090;SDS011;10205;49.678;6.560;2023-04-24T03:02:01;2.10;;;1.90;;
20090;SDS011;10205;49.678;6.560;2023-04-24T03:04:28;2.17;;;1.98;;
20090;SDS011;10205;49.678;6.560;2023-04-24T03:06:56;3.03;;;2.13;;
20090;SDS011;10205;49.678;6.560;2023-04-24T03:09:24;2.20;;;2.00;;
20090;SDS011;10205;49.678;6.560;2023-04-24T03:11:53;2.58;;;1.90;;
20090;SDS011;10205;49.678;6.560;2023-04-24T03:14:20;2.85;;;2.10;;
20090;SDS011;10205;49.678;6.560;2023-04-24T03:16:47;3.38;;;2.22;;
20090;SDS011;10205;49.678;6.560;2023-04-24T03:19:15;2.22;;;2.00;;
20090;SDS011;10205;49.678;6.560;2023-04-24T03:21:42;2.75;;;2.42;;
20090;SDS011;10205;49.678;6.560;2023-04-24T03:24:11;2.80;;;2.35;;
20090;SDS011;10205;49.678;6.560;2023-04-24T03:26:38;3.05;;;2.05;;
20090;SDS011;10205;49.678;6.560;2023-04-24T03:29:05;2.35;;;2.15;;
20090;SDS011;10205;49.678;6.560;2023-04-24T03:31:32;3.05;;;2.40;;
20090;SDS011;10205;49.678;6.560;2023-04-24T03:33:59;3.17;;;2.30;;
20090;SDS011;10205;49.678;6.560;2023-04-24T03:36:27;2.83;;;2.58;;
20090;SDS011;10205;49.678;6.560;2023-04-24T03:38:54;5.55;;;3.10;;
20090;SDS011;10205;49.678;6.560;2023-04-24T03:41:22;5.05;;;2.60;;
20090;SDS011;10205;49.678;6.560;2023-04-24T03:43:49;2.35;;;2.20;;
20090;SDS011;10205;49.678;6.560;2023-04-24T03:46:19;2.60;;;2.40;;
20090;SDS011;10205;49.678;6.560;2023-04-24T03:48:46;2.90;;;2.40;;
20090;SDS011;10205;49.678;6.560;2023-04-24T03:51:13;3.25;;;2.80;;
20090;SDS011;10205;49.678;6.560;2023-04-24T03:53:40;3.03;;;2.72;;
20090;SDS011;10205;49.678;6.560;2023-04-24T03:56:08;4.63;;;3.20;;
20090;SDS011;10205;49.678;6.560;2023-04-24T03:58:36;3.53;;;3.10;;
20090;SDS011;10205;49.678;6.560;2023-04-24T04:01:04;3.72;;;3.30;;
20090;SDS011;10205;49.678;6.560;2023-04-24T04:03:31;3.22;;;2.92;;
20090;SDS011;10205;49.678;6.560;2023-04-24T04:05:58;3.67;;;2.85;;
20090;SDS011;10205;49.678;6.560;2023-04-24T04:08:25;3.20;;;2.90;;
20090;SDS011;10205;49.678;6.560;2023-04-24T04:10:52;4.05;;;3.00;;
20090;SDS011;10205;49.678;6.560;2023-04-24T04:13:20;3.38;;;3.08;;
20090;SDS011;10205;49.678;6.560;2023-04-24T04:15:48;3.35;;;3.05;;
20090;SDS011;10205;49.678;6.560;2023-04-24T04:18:15;3.67;;;3.00;;
20090;SDS011;10205;49.678;6.560;2023-04-24T04:20:42;3.63;;;3.33;;
20090;SDS011;10205;49.678;6.560;2023-04-24T04:23:09;3.85;;;3.42;;
20090;SDS011;10205;49.678;6.560;2023-04-24T04:25:36;3.42;;;2.97;;
20090;SDS011;10205;49.678;6.560;2023-04-24T04:28:04;3.08;;;2.75;;
20090;SDS011;10205;49.678;6.560;2023-04-24T04:30:31;3.28;;;2.45;;
20090;SDS011;10205;49.678;6.560;2023-04-24T04:33:00;6.20;;;2.97;;
20090;SDS011;10205;49.678;6.560;2023-04-24T04:35:27;4.18;;;3.20;;
20090;SDS011;10205;49.678;6.560;2023-04-24T04:37:54;3.35;;;3.05;;
20090;SDS011;10205;49.678;6.560;2023-04-24T04:40:23;3.95;;;2.58;;
20090;SDS011;10205;49.678;6.560;2023-04-24T04:42:51;4.97;;;2.90;;
20090;SDS011;10205;49.678;6.560;2023-04-24T04:45:19;3.17;;;2.88;;
20090;SDS011;10205;49.678;6.560;2023-04-24T04:47:46;2.67;;;2.47;;
20090;SDS011;10205;49.678;6.560;2023-04-24T04:50:15;3.42;;;3.03;;
20090;SDS011;10205;49.678;6.560;2023-04-24T04:52:44;3.13;;;2.80;;
20090;SDS011;10205;49.678;6.560;2023-04-24T04:55:11;2.60;;;2.40;;
20090;SDS011;10205;49.678;6.560;2023-04-24T04:57:39;3.85;;;2.75;;
20090;SDS011;10205;49.678;6.560;2023-04-24T05:00:07;3.10;;;2.63;;
20090;SDS011;10205;49.678;6.560;2023-04-24T05:02:36;3.60;;;2.78;;
20090;SDS011;10205;49.678;6.560;2023-04-24T05:05:04;2.63;;;2.42;;
20090;SDS011;10205;49.678;6.560;2023-04-24T05:07:33;2.92;;;2.70;;
20090;SDS011;10205;49.678;6.560;2023-04-24T05:10:01;2.60;;;2.10;;
20090;SDS011;10205;49.678;6.560;2023-04-24T05:12:29;3.40;;;2.67;;
20090;SDS011;10205;49.678;6.560;2023-04-24T05:14:56;2.50;;;2.30;;
20090;SDS011;10205;49.678;6.560;2023-04-24T05:17:26;3.25;;;2.70;;
20090;SDS011;10205;49.678;6.560;2023-04-24T05:19:53;2.47;;;2.20;;
20090;SDS011;10205;49.678;6.560;2023-04-24T05:22:20;2.70;;;2.50;;
20090;SDS011;10205;49.678;6.560;2023-04-24T05:24:50;3.60;;;2.50;;
20090;SDS011;10205;49.678;6.560;2023-04-24T05:27:18;2.50;;;2.30;;
20090;SDS011;10205;49.678;6.560;2023-04-24T05:29:46;2.92;;;2.60;;
20090;SDS011;10205;49.678;6.560;2023-04-24T05:32:13;2.85;;;2.15;;
20090;SDS011;10205;49.678;6.560;2023-04-24T05:34:40;3.17;;;2.88;;
20090;SDS011;10205;49.678;6.560;2023-04-24T05:37:07;3.10;;;2.33;;
20090;SDS011;10205;49.678;6.560;2023-04-24T05:39:35;3.10;;;2.67;;
20090;SDS011;10205;49.678;6.560;2023-04-24T05:42:04;2.35;;;2.15;;
20090;SDS011;10205;49.678;6.560;2023-04-24T05:44:31;2.50;;;2.30;;
20090;SDS011;10205;49.678;6.560;2023-04-24T05:46:58;2.65;;;2.45;;
20090;SDS011;10205;49.678;6.560;2023-04-24T05:49:25;3.17;;;2.58;;
20090;SDS011;10205;49.678;6.560;2023-04-24T05:51:53;3.67;;;2.38;;
20090;SDS011;10205;49.678;6.560;2023-04-24T05:54:20;2.95;;;2.35;;
20090;SDS011;10205;49.678;6.560;2023-04-24T05:56:48;4.03;;;2.67;;
20090;SDS011;10205;49.678;6.560;2023-04-24T05:59:17;2.40;;;2.20;;
20090;SDS011;10205;49.678;6.560;2023-04-24T06:01:45;2.70;;;2.42;;
20090;SDS011;10205;49.678;6.560;2023-04-24T06:04:12;3.40;;;2.60;;
20090;SDS011;10205;49.678;6.560;2023-04-24T06:06:42;2.67;;;2.47;;
20090;SDS011;10205;49.678;6.560;2023-04-24T06:09:09;2.50;;;2.30;;
20090;SDS011;10205;49.678;6.560;2023-04-24T06:11:37;2.55;;;2.22;;
20090;SDS011;10205;49.678;6.560;2023-04-24T06:14:04;4.90;;;2.50;;
20090;SDS011;10205;49.678;6.560;2023-04-24T06:16:32;3.50;;;2.75;;
20090;SDS011;10205;49.678;6.560;2023-04-24T06:18:59;3.97;;;2.80;;
20090;SDS011;10205;49.678;6.560;2023-04-24T06:21:26;2.70;;;2.50;;
20090;SDS011;10205;49.678;6.560;2023-04-24T06:23:54;2.72;;;2.47;;
20090;SDS011;10205;49.678;6.560;2023-04-24T06:26:21;5.43;;;2.90;;
20090;SDS011;10205;49.678;6.560;2023-04-24T06:28:50;2.80;;;2.60;;
20090;SDS011;10205;49.678;6.560;2023-04-24T06:31:18;2.85;;;2.65;;
20090;SDS011;10205;49.678;6.560;2023-04-24T06:33:47;3.97;;;2.92;;
20090;SDS011;10205;49.678;6.560;2023-04-24T06:36:15;3.15;;;2.85;;
20090;SDS011;10205;49.678;6.560;2023-04-24T06:38:43;2.83;;;2.60;;
20090;SDS011;10205;49.678;6.560;2023-04-24T06:41:10;2.85;;;2.58;;
20090;SDS011;10205;49.678;6.560;2023-04-24T06:43:38;3.88;;;2.83;;
20090;SDS011;10205;49.678;6.560;2023-04-24T06:46:06;3.70;;;2.78;;
20090;SDS011;10205;49.678;6.560;2023-04-24T06:48:33;2.85;;;2.63;;
20090;SDS011;10205;49.678;6.560;2023-04-24T06:51:02;2.45;;;2.25;;
20090;SDS011;10205;49.678;6.560;2023-04-24T06:53:29;2.90;;;2.60;;
20090;SDS011;10205;49.678;6.560;2023-04-24T06:55:59;2.42;;;2.22;;
20090;SDS011;10205;49.678;6.560;2023-04-24T06:58:26;3.35;;;3.05;;
20090;SDS011;10205;49.678;6.560;2023-04-24T07:00:59;3.25;;;2.90;;
20090;SDS011;10205;49.678;6.560;2023-04-24T07:03:31;2.88;;;2.55;;
20090;SDS011;10205;49.678;6.560;2023-04-24T07:05:58;2.55;;;2.35;;
20090;SDS011;10205;49.678;6.560;2023-04-24T07:08:27;3.05;;;2.75;;
20090;SDS011;10205;49.678;6.560;2023-04-24T07:10:58;3.75;;;2.67;;
20090;SDS011;10205;49.678;6.560;2023-04-24T07:13:28;3.40;;;2.63;;
20090;SDS011;10205;49.678;6.560;2023-04-24T07:16:10;3.20;;;2.55;;
20090;SDS011;10205;49.678;6.560;2023-04-24T07:20:11;3.38;;;2.38;;
20090;SDS011;10205;49.678;6.560;2023-04-24T07:22:39;2.58;;;2.38;;
20090;SDS011;10205;49.678;6.560;2023-04-24T07:25:08;3.03;;;2.72;;
20090;SDS011;10205;49.678;6.560;2023-04-24T07:27:36;3.33;;;2.53;;
20090;SDS011;10205;49.678;6.560;2023-04-24T07:30:11;3.30;;;3.00;;
20090;SDS011;10205;49.678;6.560;2023-04-24T07:33:12;3.60;;;2.95;;
20090;SDS011;10205;49.678;6.560;2023-04-24T07:35:39;3.60;;;2.95;;
20090;SDS011;10205;49.678;6.560;2023-04-24T07:38:07;3.40;;;3.10;;
20090;SDS011;10205;49.678;6.560;2023-04-24T07:40:35;5.88;;;3.20;;
20090;SDS011;10205;49.678;6.560;2023-04-24T07:43:02;4.45;;;3.35;;
20090;SDS011;10205;49.678;6.560;2023-04-24T07:45:29;4.32;;;3.03;;
20090;SDS011;10205;49.678;6.560;2023-04-24T07:48:02;3.45;;;3.15;;
20090;SDS011;10205;49.678;6.560;2023-04-24T07:50:29;3.15;;;2.85;;
20090;SDS011;10205;49.678;6.560;2023-04-24T07:52:56;3.55;;;3.00;;
20090;SDS011;10205;49.678;6.560;2023-04-24T07:55:23;3.55;;;3.03;;
20090;SDS011;10205;49.678;6.560;2023-04-24T07:57:52;3.42;;;3.13;;
20090;SDS011;10205;49.678;6.560;2023-04-24T08:00:19;5.00;;;3.20;;
20090;SDS011;10205;49.678;6.560;2023-04-24T08:02:46;4.28;;;2.83;;
20090;SDS011;10205;49.678;6.560;2023-04-24T08:05:14;3.70;;;3.28;;
20090;SDS011;10205;49.678;6.560;2023-04-24T08:07:41;3.28;;;2.88;;
20090;SDS011;10205;49.678;6.560;2023-04-24T08:10:11;3.10;;;2.80;;
20090;SDS011;10205;49.678;6.560;2023-04-24T08:12:38;3.38;;;2.78;;
20090;SDS011;10205;49.678;6.560;2023-04-24T08:15:08;2.92;;;2.70;;
20090;SDS011;10205;49.678;6.560;2023-04-24T08:17:36;3.08;;;2.63;;
20090;SDS011;10205;49.678;6.560;2023-04-24T08:20:04;4.55;;;2.85;;
20090;SDS011;10205;49.678;6.560;2023-04-24T08:22:35;4.57;;;3.05;;
20090;SDS011;10205;49.678;6.560;2023-04-24T08:25:02;3.55;;;3.17;;
20090;SDS011;10205;49.678;6.560;2023-04-24T08:27:30;3.28;;;2.80;;
20090;SDS011;10205;49.678;6.560;2023-04-24T08:29:57;4.30;;;2.83;;
20090;SDS011;10205;49.678;6.560;2023-04-24T08:32:26;3.08;;;2.75;;
20090;SDS011;10205;49.678;6.560;2023-04-24T08:34:54;4.43;;;3.05;;
20090;SDS011;10205;49.678;6.560;2023-04-24T08:37:21;3.30;;;2.55;;
20090;SDS011;10205;49.678;6.560;2023-04-24T08:39:48;5.90;;;3.08;;
20090;SDS011;10205;49.678;6.560;2023-04-24T08:42:17;3.50;;;3.20;;
20090;SDS011;10205;49.678;6.560;2023-04-24T08:44:45;5.18;;;3.25;;
20090;SDS011;10205;49.678;6.560;2023-04-24T08:47:15;3.45;;;2.95;;
20090;SDS011;10205;49.678;6.560;2023-04-24T08:49:44;5.13;;;3.20;;
20090;SDS011;10205;49.678;6.560;2023-04-24T08:52:16;4.78;;;3.17;;
20090;SDS011;10205;49.678;6.560;2023-04-24T08:54:45;3.40;;;2.78;;
20090;SDS011;10205;49.678;6.560;2023-04-24T08:57:14;3.08;;;2.88;;
20090;SDS011;10205;49.678;6.560;2023-04-24T08:59:42;4.15;;;2.97;;
20090;SDS011;10205;49.678;6.560;2023-04-24T09:02:10;4.20;;;3.35;;
20090;SDS011;10205;49.678;6.560;2023-04-24T09:04:40;3.65;;;3.20;;
20090;SDS011;10205;49.678;6.560;2023-04-24T09:07:10;3.33;;;2.95;;
20090;SDS011;10205;49.678;6.560;2023-04-24T09:09:42;3.83;;;3.10;;
20090;SDS011;10205;49.678;6.560;2023-04-24T09:12:09;3.38;;;3.08;;
20090;SDS011;10205;49.678;6.560;2023-04-24T09:14:37;3.80;;;3.40;;
20090;SDS011;10205;49.678;6.560;2023-04-24T09:17:07;3.92;;;3.63;;
20090;SDS011;10205;49.678;6.560;2023-04-24T09:19:34;6.40;;;3.85;;
20090;SDS011;10205;49.678;6.560;2023-04-24T09:22:04;4.82;;;4.18;;
20090;SDS011;10205;49.678;6.560;2023-04-24T09:24:34;4.63;;;3.60;;
20090;SDS011;10205;49.678;6.560;2023-04-24T09:27:01;3.85;;;3.50;;
20090;SDS011;10205;49.678;6.560;2023-04-24T09:29:29;3.95;;;3.55;;
20090;SDS011;10205;49.678;6.560;2023-04-24T09:31:57;3.72;;;3.38;;
20090;SDS011;10205;49.678;6.560;2023-04-24T09:34:25;4.38;;;3.78;;
20090;SDS011;10205;49.678;6.560;2023-04-24T09:36:53;5.50;;;3.95;;
20090;SDS011;10205;49.678;6.560;2023-04-24T09:39:22;4.18;;;3.47;;
20090;SDS011;10205;49.678;6.560;2023-04-24T09:41:51;6.05;;;3.65;;
20090;SDS011;10205;49.678;6.560;2023-04-24T09:44:22;6.22;;;4.43;;
20090;SDS011;10205;49.678;6.560;2023-04-24T09:46:53;5.05;;;3.97;;
20090;SDS011;10205;49.678;6.560;2023-04-24T09:49:22;5.80;;;4.38;;
20090;SDS011;10205;49.678;6.560;2023-04-24T09:51:51;4.70;;;3.65;;
20090;SDS011;10205;49.678;6.560;2023-04-24T09:54:28;5.07;;;3.85;;
20090;SDS011;10205;49.678;6.560;2023-04-24T09:56:58;5.40;;;3.95;;
20090;SDS011;10205;49.678;6.560;2023-04-24T09:59:26;5.93;;;4.00;;
20090;SDS011;10205;49.678;6.560;2023-04-24T10:01:54;7.10;;;4.10;;
20090;SDS011;10205;49.678;6.560;2023-04-24T10:04:25;4.20;;;3.03;;
20090;SDS011;10205;49.678;6.560;2023-04-24T10:06:55;4.80;;;3.72;;
20090;SDS011;10205;49.678;6.560;2023-04-24T10:09:24;4.93;;;3.97;;
20090;SDS011;10205;49.678;6.560;2023-04-24T10:11:53;4.45;;;3.70;;
20090;SDS011;10205;49.678;6.560;2023-04-24T10:14:23;3.75;;;3.38;;
20090;SDS011;10205;49.678;6.560;2023-04-24T10:16:52;3.97;;;3.42;;
20090;SDS011;10205;49.678;6.560;2023-04-24T10:19:21;5.13;;;3.85;;
20090;SDS011;10205;49.678;6.560;2023-04-24T10:21:52;4.05;;;3.65;;
20090;SDS011;10205;49.678;6.560;2023-04-24T10:24:22;6.35;;;4.15;;
20090;SDS011;10205;49.678;6.560;2023-04-24T10:26:50;4.18;;;3.78;;
20090;SDS011;10205;49.678;6.560;2023-04-24T10:29:18;3.92;;;3.55;;
20090;SDS011;10205;49.678;6.560;2023-04-24T10:31:47;5.65;;;3.83;;
20090;SDS011;10205;49.678;6.560;2023-04-24T10:34:15;4.50;;;3.72;;
20090;SDS011;10205;49.678;6.560;2023-04-24T10:36:48;5.03;;;3.78;;
20090;SDS011;10205;49.678;6.560;2023-04-24T10:39:19;3.95;;;3.55;;
20090;SDS011;10205;49.678;6.560;2023-04-24T10:41:48;4.63;;;4.03;;
20090;SDS011;10205;49.678;6.560;2023-04-24T10:44:16;4.80;;;3.67;;
20090;SDS011;10205;49.678;6.560;2023-04-24T10:46:44;5.20;;;4.00;;
20090;SDS011;10205;49.678;6.560;2023-04-24T10:49:14;5.60;;;3.75;;
20090;SDS011;10205;49.678;6.560;2023-04-24T10:51:45;4.82;;;3.53;;
20090;SDS011;10205;49.678;6.560;2023-04-24T10:54:24;5.38;;;3.17;;
20090;SDS011;10205;49.678;6.560;2023-04-24T10:56:53;3.70;;;3.30;;
20090;SDS011;10205;49.678;6.560;2023-04-24T11:00:10;4.80;;;3.55;;
20090;SDS011;10205;49.678;6.560;2023-04-24T11:02:42;4.57;;;3.03;;
20090;SDS011;10205;49.678;6.560;2023-04-24T11:05:19;3.80;;;2.78;;
20090;SDS011;10205;49.678;6.560;2023-04-24T11:10:38;3.70;;;2.97;;
20090;SDS011;10205;49.678;6.560;2023-04-24T11:13:08;5.30;;;3.15;;
20090;SDS011;10205;49.678;6.560;2023-04-24T11:15:36;4.78;;;3.17;;
20090;SDS011;10205;49.678;6.560;2023-04-24T11:18:12;3.40;;;3.10;;
20090;SDS011;10205;49.678;6.560;2023-04-24T11:24:38;7.97;;;3.33;;
20090;SDS011;10205;49.678;6.560;2023-04-24T11:28:20;6.35;;;3.88;;
20090;SDS011;10205;49.678;6.560;2023-04-24T11:34:17;4.90;;;3.20;;
20090;SDS011;10205;49.678;6.560;2023-04-24T11:36:53;6.78;;;3.70;;
20090;SDS011;10205;49.678;6.560;2023-04-24T11:39:29;4.80;;;3.38;;
20090;SDS011;10205;49.678;6.560;2023-04-24T11:45:25;4.93;;;3.38;;
20090;SDS011;10205;49.678;6.560;2023-04-24T11:47:55;5.20;;;3.55;;
20090;SDS011;10205;49.678;6.560;2023-04-24T11:50:36;7.60;;;3.78;;
20090;SDS011;10205;49.678;6.560;2023-04-24T11:57:36;4.20;;;3.67;;
20090;SDS011;10205;49.678;6.560;2023-04-24T12:00:16;5.47;;;3.60;;
20090;SDS011;10205;49.678;6.560;2023-04-24T12:02:45;4.65;;;3.97;;
20090;SDS011;10205;49.678;6.560;2023-04-24T12:05:19;4.03;;;3.63;;
20090;SDS011;10205;49.678;6.560;2023-04-24T12:07:46;4.43;;;3.78;;
20090;SDS011;10205;49.678;6.560;2023-04-24T12:10:19;6.15;;;4.10;;
20090;SDS011;10205;49.678;6.560;2023-04-24T12:12:46;7.45;;;4.20;;
20090;SDS011;10205;49.678;6.560;2023-04-24T12:15:15;4.28;;;3.85;;
20090;SDS011;10205;49.678;6.560;2023-04-24T12:17:44;4.22;;;3.83;;
20090;SDS011;10205;49.678;6.560;2023-04-24T12:20:12;5.18;;;3.90;;
20090;SDS011;10205;49.678;6.560;2023-04-24T12:22:44;5.90;;;3.72;;
20090;SDS011;10205;49.678;6.560;2023-04-24T12:25:12;4.20;;;3.80;;
20090;SDS011;10205;49.678;6.560;2023-04-24T12:27:52;4.88;;;4.05;;
20090;SDS011;10205;49.678;6.560;2023-04-24T12:31:26;6.13;;;4.15;;
20090;SDS011;10205;49.678;6.560;2023-04-24T12:33:57;5.78;;;3.65;;
20090;SDS011;10205;49.678;6.560;2023-04-24T12:36:24;7.82;;;4.55;;
20090;SDS011;10205;49.678;6.560;2023-04-24T12:39:05;5.05;;;3.78;;
20090;SDS011;10205;49.678;6.560;2023-04-24T12:42:59;5.65;;;4.00;;
20090;SDS011;10205;49.678;6.560;2023-04-24T12:45:50;4.43;;;3.72;;
20090;SDS011;10205;49.678;6.560;2023-04-24T12:48:17;4.93;;;4.43;;
20090;SDS011;10205;49.678;6.560;2023-04-24T12:50:54;4.68;;;3.50;;
20090;SDS011;10205;49.678;6.560;2023-04-24T12:53:26;3.53;;;3.08;;
20090;SDS011;10205;49.678;6.560;2023-04-24T12:56:02;4.32;;;3.92;;
20090;SDS011;10205;49.678;6.560;2023-04-24T12:58:31;5.40;;;4.00;;
20090;SDS011;10205;49.678;6.560;2023-04-24T13:00:58;4.90;;;3.35;;
20090;SDS011;10205;49.678;6.560;2023-04-24T13:03:25;7.78;;;3.97;;
20090;SDS011;10205;49.678;6.560;2023-04-24T13:05:53;6.22;;;3.65;;
20090;SDS011;10205;49.678;6.560;2023-04-24T13:08:20;6.70;;;3.97;;
20090;SDS011;10205;49.678;6.560;2023-04-24T13:10:47;5.93;;;3.83;;
20090;SDS011;10205;49.678;6.560;2023-04-24T13:13:16;8.95;;;4.30;;
20090;SDS011;10205;49.678;6.560;2023-04-24T13:15:44;4.82;;;3.72;;
20090;SDS011;10205;49.678;6.560;2023-04-24T13:18:11;4.90;;;3.47;;
20090;SDS011;10205;49.678;6.560;2023-04-24T13:20:38;6.35;;;3.50;;
20090;SDS011;10205;49.678;6.560;2023-04-24T13:23:06;4.75;;;3.42;;
20090;SDS011;10205;49.678;6.560;2023-04-24T13:25:34;4.93;;;3.75;;
20090;SDS011;10205;49.678;6.560;2023-04-24T13:28:04;5.03;;;4.25;;
20090;SDS011;10205;49.678;6.560;2023-04-24T13:30:31;6.15;;;3.72;;
20090;SDS011;10205;49.678;6.560;2023-04-24T13:33:00;4.45;;;3.47;;
20090;SDS011;10205;49.678;6.560;2023-04-24T13:35:27;4.50;;;3.35;;
20090;SDS011;10205;49.678;6.560;2023-04-24T13:37:55;4.10;;;3.58;;
20090;SDS011;10205;49.678;6.560;2023-04-24T13:40:22;4.13;;;3.45;;
20090;SDS011;10205;49.678;6.560;2023-04-24T13:42:49;6.22;;;3.88;;
20090;SDS011;10205;49.678;6.560;2023-04-24T13:45:16;4.03;;;3.63;;
20090;SDS011;10205;49.678;6.560;2023-04-24T13:47:44;3.97;;;3.63;;
20090;SDS011;10205;49.678;6.560;2023-04-24T13:50:12;6.57;;;4.15;;
20090;SDS011;10205;49.678;6.560;2023-04-24T13:52:40;4.78;;;3.83;;
20090;SDS011;10205;49.678;6.560;2023-04-24T13:55:07;4.05;;;3.30;;
20090;SDS011;10205;49.678;6.560;2023-04-24T13:57:34;4.70;;;3.83;;
20090;SDS011;10205;49.678;6.560;2023-04-24T14:00:02;5.07;;;3.80;;
20090;SDS011;10205;49.678;6.560;2023-04-24T14:02:31;4.88;;;3.65;;
20090;SDS011;10205;49.678;6.560;2023-04-24T14:04:58;8.07;;;4.50;;
20090;SDS011;10205;49.678;6.560;2023-04-24T14:07:27;6.20;;;3.95;;
20090;SDS011;10205;49.678;6.560;2023-04-24T14:09:55;4.28;;;3.88;;
20090;SDS011;10205;49.678;6.560;2023-04-24T14:12:22;4.05;;;3.65;;
20090;SDS011;10205;49.678;6.560;2023-04-24T14:14:49;4.75;;;4.18;;
20090;SDS011;10205;49.678;6.560;2023-04-24T14:17:16;4.72;;;3.50;;
20090;SDS011;10205;49.678;6.560;2023-04-24T14:19:44;4.05;;;3.20;;
20090;SDS011;10205;49.678;6.560;2023-04-24T14:22:11;4.65;;;3.63;;
20090;SDS011;10205;49.678;6.560;2023-04-24T14:24:39;3.47;;;3.00;;
20090;SDS011;10205;49.678;6.560;2023-04-24T14:27:06;4.13;;;3.30;;
20090;SDS011;10205;49.678;6.560;2023-04-24T14:29:33;4.57;;;3.70;;
20090;SDS011;10205;49.678;6.560;2023-04-24T14:32:00;6.25;;;3.45;;
20090;SDS011;10205;49.678;6.560;2023-04-24T14:34:28;5.60;;;4.28;;
20090;SDS011;10205;49.678;6.560;2023-04-24T14:36:55;4.95;;;3.60;;
20090;SDS011;10205;49.678;6.560;2023-04-24T14:39:23;4.40;;;3.40;;
20090;SDS011;10205;49.678;6.560;2023-04-24T14:41:52;4.22;;;3.13;;
20090;SDS011;10205;49.678;6.560;2023-04-24T14:44:20;3.88;;;3.47;;
20090;SDS011;10205;49.678;6.560;2023-04-24T14:46:48;4.90;;;3.22;;
20090;SDS011;10205;49.678;6.560;2023-04-24T14:49:15;3.10;;;2.90;;
20090;SDS011;10205;49.678;6.560;2023-04-24T14:51:44;3.53;;;3.15;;
20090;SDS011;10205;49.678;6.560;2023-04-24T14:54:11;4.07;;;3.17;;
20090;SDS011;10205;49.678;6.560;2023-04-24T14:56:39;4.20;;;2.65;;
20090;SDS011;10205;49.678;6.560;2023-04-24T14:59:11;3.42;;;2.92;;
20090;SDS011;10205;49.678;6.560;2023-04-24T15:01:47;4.57;;;3.08;;
20090;SDS011;10205;49.678;6.560;2023-04-24T15:04:15;2.92;;;2.63;;
20090;SDS011;10205;49.678;6.560;2023-04-24T15:06:43;3.22;;;2.85;;
20090;SDS011;10205;49.678;6.560;2023-04-24T15:09:10;3.10;;;2.78;;
20090;SDS011;10205;49.678;6.560;2023-04-24T15:11:37;3.78;;;2.83;;
20090;SDS011;10205;49.678;6.560;2023-04-24T15:14:07;3.47;;;2.55;;
20090;SDS011;10205;49.678;6.560;2023-04-24T15:16:35;3.20;;;2.90;;
20090;SDS011;10205;49.678;6.560;2023-04-24T15:19:03;2.78;;;2.50;;
20090;SDS011;10205;49.678;6.560;2023-04-24T15:21:30;2.63;;;2.42;;